Time;durP1;ratioP1;P1;durP2;ratioP2;P2;SDS_P1;SDS_P2;PMS_P1;PMS_P2;Temp;Humidity;BMP_temperature;BMP_pressure;BME280_temperature;BME280_humidity;BME280_pressure;Samples;Min_cycle;Max_cycle;Signal;HPM_P1;HPM_P2
2021/06/12 04:11:10;;;;;;;0.20;0.20;;;21.00;99.90;;;;;;5626163;23;20300;-81
2021/06/12 04:13:38;;;;;;;0.20;0.20;;;21.10;99.90;;;;;;4956213;29;20209;-79
2021/06/12 04:16:05;;;;;;;0.20;0.20;;;21.20;99.90;;;;;;4954325;29;20260;-79
2021/06/12 04:18:33;;;;;;;0.20;0.20;;;21.20;99.90;;;;;;4954405;29;20269;-80
2021/06/12 04:21:01;;;;;;;0.20;0.20;;;21.20;99.90;;;;;;4954834;29;20255;-78
2021/06/12 04:23:29;;;;;;;0.20;0.20;;;21.20;99.90;;;;;;4954831;29;20244;-79
2021/06/12 04:25:57;;;;;;;0.20;0.20;;;21.30;99.90;;;;;;4955073;29;20268;-78
2021/06/12 04:28:25;;;;;;;0.20;0.20;;;21.40;99.90;;;;;;4955484;28;20384;-78
2021/06/12 04:30:53;;;;;;;0.20;0.20;;;21.40;99.90;;;;;;4958658;29;20267;-79
2021/06/12 04:33:21;;;;;;;0.20;0.20;;;21.60;99.90;;;;;;4958956;29;20354;-78
2021/06/12 04:35:48;;;;;;;0.20;0.20;;;21.60;99.90;;;;;;4959187;29;20212;-79
2021/06/12 04:38:16;;;;;;;0.20;0.20;;;21.60;99.90;;;;;;4958982;29;20201;-79
2021/06/12 04:40:43;;;;;;;0.10;0.10;;;21.60;99.90;;;;;;4958804;29;20221;-78
2021/06/12 04:43:12;;;;;;;0.20;0.20;;;21.70;99.90;;;;;;4959056;29;20662;-79
2021/06/12 04:45:41;;;;;;;0.20;0.20;;;21.80;99.90;;;;;;4958476;29;20554;-80
2021/06/12 04:48:10;;;;;;;0.10;0.10;;;22.00;99.90;;;;;;4958660;29;20241;-80
2021/06/12 04:50:39;;;;;;;0.20;0.20;;;22.20;99.90;;;;;;4963964;29;20280;-79
2021/06/12 04:53:09;;;;;;;0.20;0.20;;;22.20;99.60;;;;;;4966654;29;20288;-79
2021/06/12 04:55:37;;;;;;;0.10;0.10;;;22.20;99.40;;;;;;4965030;29;20202;-78
2021/06/12 04:58:05;;;;;;;0.10;0.10;;;22.30;99.50;;;;;;4965950;29;20209;-80
2021/06/12 05:00:33;;;;;;;0.10;0.10;;;22.40;99.90;;;;;;4967258;29;20261;-79
2021/06/12 05:03:01;;;;;;;0.10;0.10;;;22.60;99.90;;;;;;4959154;29;20209;-79
2021/06/12 05:05:29;;;;;;;0.10;0.10;;;22.70;99.80;;;;;;4959033;29;20291;-79
2021/06/12 05:07:56;;;;;;;0.20;0.20;;;22.80;99.70;;;;;;4958931;29;20216;-80
2021/06/12 05:10:24;;;;;;;0.20;0.20;;;23.00;99.90;;;;;;4958752;29;20224;-79
2021/06/12 05:12:52;;;;;;;0.10;0.10;;;22.90;99.10;;;;;;4958824;29;20646;-80
2021/06/12 05:15:26;;;;;;;0.10;0.10;;;23.00;98.90;;;;;;4959070;29;20201;-79
2021/06/12 05:17:54;;;;;;;0.10;0.10;;;23.00;98.40;;;;;;4959143;29;20780;-80
2021/06/12 05:20:24;;;;;;;0.10;0.10;;;23.10;99.90;;;;;;4959992;29;20205;-80
2021/06/12 05:22:52;;;;;;;0.10;0.10;;;23.20;98.50;;;;;;4962487;29;20185;-79
2021/06/12 05:25:20;;;;;;;0.10;0.10;;;23.10;98.60;;;;;;4964416;29;20237;-80
2021/06/12 05:27:47;;;;;;;0.20;0.20;;;22.90;98.50;;;;;;4960802;29;20208;-81
2021/06/12 05:30:16;;;;;;;0.10;0.10;;;23.00;99.90;;;;;;4958439;29;20674;-82
2021/06/12 05:32:43;;;;;;;0.10;0.10;;;22.80;98.00;;;;;;4958707;29;20276;-82
2021/06/12 05:35:11;;;;;;;0.10;0.10;;;22.80;97.70;;;;;;4958653;29;20201;-79
2021/06/12 05:37:40;;;;;;;0.20;0.20;;;22.70;98.20;;;;;;4958875;29;20205;-79
2021/06/12 05:40:10;;;;;;;0.20;0.20;;;22.60;98.40;;;;;;4955803;28;20753;-80
2021/06/12 05:42:37;;;;;;;0.10;0.10;;;22.70;98.50;;;;;;4966947;28;20201;-79
2021/06/12 05:45:07;;;;;;;0.20;0.20;;;22.90;98.10;;;;;;4958659;29;20776;-80
2021/06/12 05:47:34;;;;;;;0.10;0.10;;;23.10;98.00;;;;;;4960187;29;20209;-80
2021/06/12 05:50:03;;;;;;;0.10;0.10;;;23.20;98.50;;;;;;4959669;29;20629;-80
2021/06/12 05:52:32;;;;;;;0.10;0.10;;;23.20;98.00;;;;;;4959763;29;20228;-81
2021/06/12 05:55:00;;;;;;;0.20;0.20;;;23.30;98.00;;;;;;4959843;29;20201;-80
2021/06/12 05:57:28;;;;;;;0.10;0.10;;;23.30;97.80;;;;;;4960283;29;20205;-81
2021/06/12 05:59:55;;;;;;;0.10;0.10;;;23.20;98.00;;;;;;4959531;29;20643;-80
2021/06/12 06:02:23;;;;;;;0.10;0.10;;;23.30;97.90;;;;;;4958978;29;20229;-78
2021/06/12 06:04:50;;;;;;;0.13;0.13;;;23.30;98.10;;;;;;4958741;29;20229;-82
2021/06/12 06:07:18;;;;;;;0.20;0.20;;;23.40;98.00;;;;;;4958707;28;20210;-82
2021/06/12 06:09:45;;;;;;;0.20;0.20;;;23.50;98.10;;;;;;4960436;28;20197;-80
2021/06/12 06:12:14;;;;;;;0.10;0.10;;;23.80;97.20;;;;;;4960271;29;20283;-81
2021/06/12 06:14:42;;;;;;;0.10;0.10;;;24.00;96.80;;;;;;4960908;29;20216;-83
2021/06/12 06:17:09;;;;;;;0.20;0.20;;;24.20;96.70;;;;;;4959964;28;20248;-80
2021/06/12 06:19:37;;;;;;;0.10;0.10;;;24.30;96.40;;;;;;4955122;29;20199;-78
2021/06/12 06:22:04;;;;;;;0.10;0.10;;;24.40;96.00;;;;;;4949147;29;20222;-81
2021/06/12 06:24:32;;;;;;;0.17;0.17;;;24.40;96.60;;;;;;4952947;29;20208;-79
2021/06/12 06:26:59;;;;;;;0.10;0.10;;;24.50;96.60;;;;;;4957852;29;20209;-79
2021/06/12 06:29:28;;;;;;;0.20;0.20;;;24.50;95.70;;;;;;4957765;29;20209;-77
2021/06/12 06:31:55;;;;;;;0.10;0.10;;;24.10;96.40;;;;;;4956171;29;20504;-76
2021/06/12 06:34:23;;;;;;;0.10;0.10;;;24.10;97.00;;;;;;4954756;29;20569;-76
2021/06/12 06:36:50;;;;;;;0.10;0.10;;;24.00;96.80;;;;;;4955819;29;20208;-76
2021/06/12 06:39:18;;;;;;;0.20;0.20;;;24.00;97.00;;;;;;4958899;29;20201;-77
2021/06/12 06:41:45;;;;;;;0.10;0.10;;;23.70;97.50;;;;;;4956896;29;20257;-76
2021/06/12 06:44:12;;;;;;;0.10;0.10;;;23.90;97.50;;;;;;4956537;29;20705;-77
2021/06/12 06:46:41;;;;;;;0.20;0.20;;;24.00;97.50;;;;;;4955110;29;20256;-77
2021/06/12 06:49:09;;;;;;;0.10;0.10;;;24.00;97.10;;;;;;4956233;29;20300;-73
2021/06/12 06:51:36;;;;;;;0.17;0.17;;;24.00;97.30;;;;;;4954727;28;20257;-73
2021/06/12 06:54:04;;;;;;;0.10;0.10;;;24.00;97.20;;;;;;4956527;29;20213;-77
2021/06/12 06:56:31;;;;;;;0.20;0.20;;;24.00;97.40;;;;;;4957984;29;20585;-79
2021/06/12 06:58:59;;;;;;;0.10;0.10;;;24.00;97.20;;;;;;4958585;29;20209;-75
2021/06/12 07:01:27;;;;;;;0.10;0.10;;;;;;;;;;4957915;29;20225;-77
2021/06/12 07:03:55;;;;;;;0.20;0.20;;;24.20;96.40;;;;;;4956784;29;20205;-80
2021/06/12 07:06:23;;;;;;;0.10;0.10;;;24.40;96.60;;;;;;4957661;29;20273;-79
2021/06/12 07:08:50;;;;;;;0.10;0.10;;;24.30;96.50;;;;;;4957189;29;20213;-86
2021/06/12 07:11:18;;;;;;;0.10;0.10;;;24.40;96.60;;;;;;4957244;29;20284;-82
2021/06/12 07:13:45;;;;;;;0.10;0.10;;;24.40;96.20;;;;;;4959586;29;20206;-80
2021/06/12 07:16:12;;;;;;;0.10;0.10;;;24.40;96.30;;;;;;4957510;29;20197;-76
2021/06/12 07:18:40;;;;;;;0.10;0.10;;;24.50;96.50;;;;;;4956494;29;20209;-77
2021/06/12 07:21:08;;;;;;;0.10;0.10;;;24.60;96.50;;;;;;4958422;29;20225;-79
2021/06/12 07:23:36;;;;;;;0.10;0.10;;;24.60;95.40;;;;;;4958728;29;20216;-77
2021/06/12 07:26:04;;;;;;;0.10;0.10;;;24.30;96.20;;;;;;4942512;29;20244;-74
2021/06/12 07:28:31;;;;;;;0.10;0.10;;;24.40;96.10;;;;;;4937366;29;20269;-76
2021/06/12 07:30:59;;;;;;;0.10;0.10;;;24.60;96.40;;;;;;4937881;29;20234;-77
2021/06/12 07:33:26;;;;;;;0.10;0.10;;;24.70;95.70;;;;;;4939122;29;20754;-77
2021/06/12 07:35:54;;;;;;;0.10;0.10;;;24.70;95.50;;;;;;4942046;28;20213;-76
2021/06/12 07:38:22;;;;;;;0.10;0.10;;;24.70;95.30;;;;;;4946885;29;20257;-77
2021/06/12 07:40:50;;;;;;;0.10;0.10;;;24.80;95.60;;;;;;4951896;28;20730;-77
2021/06/12 07:43:19;;;;;;;0.10;0.10;;;24.80;94.90;;;;;;4955011;29;20236;-77
2021/06/12 07:45:47;;;;;;;0.10;0.10;;;24.90;94.20;;;;;;4941069;29;20730;-76
2021/06/12 07:48:15;;;;;;;0.10;0.10;;;24.90;94.80;;;;;;4935072;29;20206;-76
2021/06/12 07:50:43;;;;;;;0.10;0.10;;;25.00;94.90;;;;;;4935045;29;20222;-75
2021/06/12 07:53:11;;;;;;;0.20;0.20;;;25.00;94.70;;;;;;4934821;29;20213;-75
2021/06/12 07:55:40;;;;;;;0.20;0.20;;;25.00;94.30;;;;;;4938701;29;20197;-80
2021/06/12 07:58:07;;;;;;;0.10;0.10;;;25.00;94.70;;;;;;4955312;29;20281;-78
2021/06/12 08:00:34;;;;;;;0.10;0.10;;;25.20;94.60;;;;;;4941385;29;20773;-78
2021/06/12 08:03:02;;;;;;;0.10;0.10;;;25.30;94.10;;;;;;4944132;29;20210;-77
2021/06/12 08:05:30;;;;;;;0.10;0.10;;;25.30;94.30;;;;;;4945306;29;20213;-78
2021/06/12 08:07:58;;;;;;;0.10;0.10;;;25.30;94.50;;;;;;4948289;29;20264;-77
2021/06/12 08:10:26;;;;;;;0.10;0.10;;;25.20;99.90;;;;;;4946665;29;20197;-76
2021/06/12 08:12:55;;;;;;;0.20;0.20;;;25.20;94.10;;;;;;4947442;29;20666;-77
2021/06/12 08:15:23;;;;;;;0.20;0.20;;;25.40;94.00;;;;;;4944265;29;20209;-76
2021/06/12 08:17:51;;;;;;;0.10;0.10;;;25.40;94.00;;;;;;4949268;29;20197;-75
2021/06/12 08:20:20;;;;;;;0.10;0.10;;;25.40;93.50;;;;;;4948889;29;20240;-76
2021/06/12 08:22:47;;;;;;;0.10;0.10;;;25.00;94.20;;;;;;4941834;29;20244;-76
2021/06/12 08:25:16;;;;;;;0.10;0.10;;;25.20;94.30;;;;;;4943789;29;20202;-76
2021/06/12 08:27:44;;;;;;;0.17;0.17;;;25.10;94.60;;;;;;4942280;29;20626;-76
2021/06/12 08:30:14;;;;;;;0.20;0.20;;;25.20;94.60;;;;;;4943250;29;20205;-76
2021/06/12 08:32:41;;;;;;;0.10;0.10;;;25.20;94.90;;;;;;4943457;29;20201;-76
2021/06/12 08:35:09;;;;;;;0.10;0.10;;;25.30;94.60;;;;;;4942383;29;20451;-76
2021/06/12 08:37:37;;;;;;;0.10;0.10;;;25.40;94.30;;;;;;4948657;29;20193;-75
2021/06/12 08:40:06;;;;;;;0.20;0.20;;;25.00;94.40;;;;;;4940067;29;20268;-74
2021/06/12 08:42:34;;;;;;;0.20;0.20;;;25.00;94.40;;;;;;4945296;29;20259;-77
2021/06/12 08:45:03;;;;;;;0.20;0.20;;;25.20;94.60;;;;;;4945808;29;20233;-77
2021/06/12 08:47:35;;;;;;;0.20;0.20;;;25.10;94.40;;;;;;4945206;29;20224;-77
2021/06/12 08:50:04;;;;;;;0.10;0.10;;;24.90;94.90;;;;;;4943398;29;20234;-77
2021/06/12 08:52:31;;;;;;;0.10;0.10;;;24.90;95.30;;;;;;4940060;29;20273;-75
2021/06/12 08:54:59;;;;;;;0.10;0.10;;;24.80;95.20;;;;;;4943671;29;20241;-75
2021/06/12 08:57:26;;;;;;;0.20;0.20;;;25.00;95.50;;;;;;4943482;29;20262;-76
2021/06/12 08:59:53;;;;;;;0.13;0.13;;;25.10;95.10;;;;;;4945554;29;20233;-74
2021/06/12 09:02:21;;;;;;;0.20;0.20;;;25.20;95.10;;;;;;4945368;29;20229;-74
2021/06/12 09:04:53;;;;;;;0.10;0.10;;;25.10;95.40;;;;;;4943457;29;20222;-75
2021/06/12 09:07:25;;;;;;;0.10;0.10;;;25.40;95.30;;;;;;4942884;29;20214;-76
2021/06/12 09:09:54;;;;;;;0.10;0.10;;;25.60;95.00;;;;;;4944279;29;20206;-74
2021/06/12 09:12:22;;;;;;;0.10;0.10;;;25.70;94.90;;;;;;4941649;29;20649;-74
2021/06/12 09:15:09;;;;;;;0.20;0.20;;;25.50;94.00;;;;;;4944194;28;20288;-74
2021/06/12 09:17:41;;;;;;;0.20;0.20;;;25.10;94.10;;;;;;4943565;29;20205;-74
2021/06/12 09:20:14;;;;;;;0.10;0.10;;;25.20;94.50;;;;;;4944429;29;20214;-75
2021/06/12 09:22:41;;;;;;;0.10;0.10;;;25.40;94.50;;;;;;4943821;29;20233;-75
2021/06/12 09:25:10;;;;;;;0.10;0.10;;;25.60;93.30;;;;;;4943291;29;20206;-75
2021/06/12 09:27:37;;;;;;;0.10;0.10;;;25.50;93.00;;;;;;4945945;29;20629;-77
2021/06/12 09:30:06;;;;;;;0.10;0.10;;;25.30;93.10;;;;;;4946967;29;20230;-77
2021/06/12 09:32:45;;;;;;;0.20;0.20;;;25.30;93.00;;;;;;4948879;29;20225;-78
2021/06/12 09:35:14;;;;;;;0.10;0.10;;;25.40;93.30;;;;;;4945958;29;20207;-77
2021/06/12 09:37:41;;;;;;;0.10;0.10;;;25.30;93.20;;;;;;4947492;29;20206;-76
2021/06/12 09:40:11;;;;;;;0.10;0.10;;;25.10;93.70;;;;;;4940284;29;20210;-77
2021/06/12 09:42:43;;;;;;;0.10;0.10;;;25.10;93.70;;;;;;4940713;29;20210;-78
2021/06/12 09:45:13;;;;;;;0.10;0.10;;;25.20;94.00;;;;;;4941095;29;20546;-76
2021/06/12 09:47:41;;;;;;;0.10;0.10;;;25.40;94.00;;;;;;4942148;29;20222;-78
2021/06/12 09:50:10;;;;;;;0.10;0.10;;;25.50;93.00;;;;;;4939867;29;20221;-77
2021/06/12 09:52:45;;;;;;;0.10;0.10;;;25.70;93.20;;;;;;4966212;29;20185;-77
2021/06/12 09:55:27;;;;;;;0.10;0.10;;;26.00;93.10;;;;;;4963913;29;20200;-77
2021/06/12 09:57:56;;;;;;;0.10;0.10;;;25.90;98.20;;;;;;4963546;29;20205;-77
2021/06/12 10:00:33;;;;;;;0.20;0.20;;;25.70;98.30;;;;;;4958380;29;20268;-76
2021/06/12 10:03:01;;;;;;;0.10;0.10;;;28.40;92.50;;;;;;4958591;29;20287;-76
2021/06/12 10:05:29;;;;;;;0.10;0.10;;;;;;;;;;4956038;29;20233;-77
2021/06/12 10:07:57;;;;;;;0.10;0.10;;;26.30;90.60;;;;;;4956193;29;20221;-78
2021/06/12 10:10:25;;;;;;;0.10;0.10;;;26.20;96.90;;;;;;4955790;29;20205;-76
2021/06/12 10:12:54;;;;;;;0.10;0.10;;;26.30;90.90;;;;;;4956108;29;20201;-75
2021/06/12 10:15:22;;;;;;;0.10;0.10;;;26.20;90.60;;;;;;4960060;29;20671;-79
2021/06/12 10:17:51;;;;;;;0.10;0.10;;;26.10;90.70;;;;;;4950908;29;20205;-78
2021/06/12 10:20:21;;;;;;;0.10;0.10;;;25.90;97.10;;;;;;4955728;29;20288;-75
2021/06/12 10:22:50;;;;;;;0.10;0.10;;;25.90;90.90;;;;;;4956815;29;20304;-75
2021/06/12 10:25:21;;;;;;;0.10;0.10;;;25.70;91.50;;;;;;4954465;29;20205;-77
2021/06/12 10:27:49;;;;;;;0.10;0.10;;;25.60;91.50;;;;;;4952676;29;20217;-77
2021/06/12 10:30:20;;;;;;;0.13;0.13;;;25.70;97.50;;;;;;4958299;29;20205;-80
2021/06/12 10:32:50;;;;;;;0.10;0.10;;;25.70;91.40;;;;;;4956878;29;20731;-76
2021/06/12 10:35:19;;;;;;;0.10;0.10;;;25.60;91.90;;;;;;4955734;29;20629;-77
2021/06/12 10:38:00;;;;;;;0.10;0.10;;;25.20;92.60;;;;;;4955847;29;20201;-78
2021/06/12 10:40:37;;;;;;;0.10;0.10;;;25.30;98.60;;;;;;4956581;29;20690;-77
2021/06/12 10:43:09;;;;;;;0.10;0.10;;;25.10;92.70;;;;;;4957969;29;20205;-77
2021/06/12 10:45:37;;;;;;;0.10;0.10;;;25.40;92.50;;;;;;4952968;29;20208;-77
2021/06/12 10:48:05;;;;;;;0.10;0.10;;;25.60;92.10;;;;;;4946508;29;20282;-75
2021/06/12 10:50:35;;;;;;;0.10;0.10;;;25.60;90.90;;;;;;4948734;29;20222;-75
2021/06/12 10:53:18;;;;;;;0.10;0.10;;;25.50;91.40;;;;;;4948749;29;20201;-75
2021/06/12 10:55:48;;;;;;;0.15;0.15;;;25.30;91.50;;;;;;4951284;29;20213;-75
2021/06/12 10:58:56;;;;;;;0.10;0.10;;;25.30;91.90;;;;;;4940299;29;20205;-76
2021/06/12 11:01:24;;;;;;;0.10;0.10;;;25.10;92.20;;;;;;4947873;29;20256;-75
2021/06/12 11:04:02;;;;;;;0.20;0.20;;;24.80;92.80;;;;;;4944512;29;20205;-77
2021/06/12 11:06:41;;;;;;;0.20;0.20;;;24.80;93.30;;;;;;4941167;29;20240;-77
2021/06/12 11:09:38;;;;;;;0.20;0.20;;;24.90;93.30;;;;;;4946361;29;20212;-75
2021/06/12 11:12:36;;;;;;;0.10;0.10;;;24.90;92.70;;;;;;4945959;29;20710;-75
2021/06/12 11:15:13;;;;;;;0.10;0.10;;;25.00;92.90;;;;;;4945982;29;20206;-75
2021/06/12 11:17:42;;;;;;;0.10;0.10;;;25.00;92.90;;;;;;4946688;29;20721;-74
2021/06/12 11:20:28;;;;;;;0.10;0.10;;;25.00;93.10;;;;;;4949418;29;20194;-77
2021/06/12 11:22:58;;;;;;;0.20;0.20;;;25.00;92.80;;;;;;4946562;29;20194;-75
2021/06/12 11:25:56;;;;;;;0.20;0.20;;;25.10;92.50;;;;;;4944289;29;20287;-76
2021/06/12 11:28:32;;;;;;;0.10;0.10;;;25.40;92.90;;;;;;4942731;29;20257;-77
2021/06/12 11:31:24;;;;;;;0.10;0.10;;;25.40;92.30;;;;;;4946923;29;20221;-76
2021/06/12 11:34:14;;;;;;;0.10;0.10;;;25.50;92.30;;;;;;4944884;29;20217;-78
2021/06/12 11:36:42;;;;;;;0.10;0.10;;;25.70;91.50;;;;;;4954978;29;20205;-70
2021/06/12 11:39:11;;;;;;;0.20;0.20;;;25.60;91.40;;;;;;4942254;28;20202;-69
2021/06/12 11:41:38;;;;;;;0.10;0.10;;;25.60;91.80;;;;;;4943020;29;20619;-73
2021/06/12 11:44:08;;;;;;;0.10;0.10;;;25.60;91.50;;;;;;4953203;28;20675;-76
2021/06/12 11:46:37;;;;;;;0.10;0.10;;;25.50;91.60;;;;;;4963802;28;20213;-75
2021/06/12 11:49:07;;;;;;;0.10;0.10;;;25.40;91.60;;;;;;4952633;28;20240;-73
2021/06/12 11:51:41;;;;;;;0.10;0.10;;;25.20;91.30;;;;;;4933545;29;20257;-75
2021/06/12 11:54:13;;;;;;;0.10;0.10;;;25.10;91.90;;;;;;4934004;29;20198;-76
2021/06/12 11:56:43;;;;;;;0.10;0.10;;;24.90;92.20;;;;;;4941123;29;20253;-76
2021/06/12 11:59:13;;;;;;;0.10;0.10;;;24.80;92.50;;;;;;4938956;29;20539;-75
2021/06/12 12:01:43;;;;;;;0.10;0.10;;;24.60;92.50;;;;;;4938719;29;20261;-76
2021/06/12 12:04:14;;;;;;;0.20;0.20;;;24.60;92.80;;;;;;4951336;29;20213;-79
2021/06/12 12:06:46;;;;;;;0.10;0.10;;;24.60;92.90;;;;;;4953366;29;20261;-79
2021/06/12 12:09:25;;;;;;;0.10;0.10;;;24.60;92.90;;;;;;4946576;29;20346;-77
2021/06/12 12:11:54;;;;;;;0.10;0.10;;;24.60;92.80;;;;;;4943030;29;20229;-76
2021/06/12 12:14:34;;;;;;;0.10;0.10;;;24.70;92.80;;;;;;4940651;29;20725;-76
2021/06/12 12:17:03;;;;;;;0.10;0.10;;;24.70;92.90;;;;;;4942955;29;20196;-76
2021/06/12 12:19:30;;;;;;;0.10;0.10;;;24.70;92.90;;;;;;4941514;29;20660;-75
2021/06/12 12:21:59;;;;;;;0.20;0.20;;;24.40;92.60;;;;;;4940124;29;20626;-76
2021/06/12 12:24:31;;;;;;;0.10;0.10;;;24.30;92.90;;;;;;4951065;29;20660;-77
2021/06/12 12:27:02;;;;;;;0.10;0.10;;;24.00;99.30;;;;;;4950140;29;20218;-75
2021/06/12 12:29:31;;;;;;;0.10;0.10;;;24.00;93.20;;;;;;4936604;29;20214;-78
2021/06/12 12:32:01;;;;;;;0.10;0.10;;;24.10;99.70;;;;;;4939167;29;20230;-78
2021/06/12 12:34:33;;;;;;;0.20;0.20;;;23.90;93.60;;;;;;4945787;29;20202;-77
2021/06/12 12:37:00;;;;;;;0.10;0.10;;;23.90;93.50;;;;;;4954746;29;20276;-78
2021/06/12 12:39:39;;;;;;;0.20;0.20;;;23.90;93.60;;;;;;4949602;29;20204;-77
2021/06/12 12:42:07;;;;;;;0.20;0.20;;;23.80;93.10;;;;;;4944744;29;20265;-79
2021/06/12 12:44:34;;;;;;;0.10;0.10;;;24.00;93.50;;;;;;4946160;29;20201;-79
2021/06/12 12:47:03;;;;;;;0.10;0.10;;;24.20;93.50;;;;;;4947153;29;20628;-78
2021/06/12 12:49:32;;;;;;;0.10;0.10;;;24.50;92.70;;;;;;4950640;28;20201;-78
2021/06/12 12:52:00;;;;;;;0.20;0.20;;;25.00;92.20;;;;;;4950433;29;20756;-78
2021/06/12 12:54:31;;;;;;;0.10;0.10;;;25.20;90.90;;;;;;4939143;29;20321;-75
2021/06/12 12:57:04;;;;;;;0.20;0.20;;;25.20;90.70;;;;;;4943658;29;20268;-77
2021/06/12 12:59:34;;;;;;;0.20;0.20;;;25.10;90.80;;;;;;4953368;29;20209;-77
2021/06/12 13:02:07;;;;;;;0.10;0.10;;;25.10;91.20;;;;;;4950168;29;20251;-78
2021/06/12 13:04:36;;;;;;;0.10;0.10;;;25.10;91.20;;;;;;4944030;29;20632;-78
2021/06/12 13:07:09;;;;;;;0.10;0.10;;;25.00;90.90;;;;;;4956383;29;20201;-77
2021/06/12 13:09:39;;;;;;;0.10;0.10;;;25.00;91.20;;;;;;4944445;29;20232;-77
2021/06/12 13:12:09;;;;;;;0.10;0.10;;;24.80;91.00;;;;;;4939505;29;20742;-76
2021/06/12 13:14:38;;;;;;;0.10;0.10;;;24.80;91.60;;;;;;4945237;29;20588;-77
2021/06/12 13:17:09;;;;;;;0.20;0.20;;;24.70;92.70;;;;;;4956191;29;20209;-73
2021/06/12 13:19:40;;;;;;;0.10;0.10;;;24.70;93.20;;;;;;4959934;29;20201;-78
2021/06/12 13:22:09;;;;;;;0.20;0.20;;;24.50;92.20;;;;;;4959175;29;20284;-77
2021/06/12 13:25:05;;;;;;;0.10;0.10;;;24.40;93.20;;;;;;4955345;29;20249;-76
2021/06/12 13:27:38;;;;;;;0.10;0.10;;;24.30;93.00;;;;;;4944931;29;20264;-77
2021/06/12 13:30:09;;;;;;;0.10;0.10;;;24.60;91.80;;;;;;4950697;29;20607;-78
2021/06/12 13:32:38;;;;;;;0.20;0.20;;;25.00;90.80;;;;;;4946577;29;20226;-78
2021/06/12 13:35:06;;;;;;;0.10;0.10;;;25.40;90.70;;;;;;4960104;29;20260;-78
2021/06/12 13:37:33;;;;;;;0.10;0.10;;;25.50;90.50;;;;;;4958988;29;20248;-79
2021/06/12 13:40:02;;;;;;;0.10;0.10;;;25.50;90.40;;;;;;4959146;29;20213;-77
2021/06/12 13:42:34;;;;;;;0.20;0.20;;;24.80;96.90;;;;;;4958874;29;20379;-77
2021/06/12 13:45:05;;;;;;;0.10;0.10;;;24.80;90.60;;;;;;4958782;29;20628;-77
2021/06/12 13:47:33;;;;;;;0.20;0.20;;;24.70;91.00;;;;;;4937441;29;20222;-77
2021/06/12 13:50:03;;;;;;;0.10;0.10;;;24.60;90.80;;;;;;4938335;29;20593;-77
2021/06/12 13:52:33;;;;;;;0.20;0.20;;;24.40;91.20;;;;;;4951353;29;20221;-79
2021/06/12 13:55:04;;;;;;;0.20;0.20;;;24.40;90.80;;;;;;4948604;29;20253;-74
2021/06/12 13:57:32;;;;;;;0.10;0.10;;;24.30;91.50;;;;;;4955321;28;20251;-77
2021/06/12 14:00:00;;;;;;;0.20;0.20;;;24.40;91.70;;;;;;4948841;28;20201;-70
2021/06/12 14:02:27;;;;;;;0.10;0.10;;;24.40;91.20;;;;;;4952549;28;20214;-72
2021/06/12 14:04:55;;;;;;;0.20;0.20;;;24.10;91.40;;;;;;4947710;29;20197;-71
2021/06/12 14:07:23;;;;;;;0.20;0.20;;;23.80;92.20;;;;;;4945267;29;20198;-74
2021/06/12 14:09:51;;;;;;;0.20;0.20;;;23.80;92.00;;;;;;4945392;29;20666;-74
2021/06/12 14:12:18;;;;;;;0.20;0.20;;;23.90;92.30;;;;;;4945368;29;20226;-76
2021/06/12 14:14:46;;;;;;;0.10;0.10;;;24.00;92.10;;;;;;4944790;29;20559;-75
2021/06/12 14:17:14;;;;;;;0.20;0.20;;;23.70;92.10;;;;;;4950130;29;20197;-78
2021/06/12 14:19:45;;;;;;;0.20;0.20;;;23.70;92.30;;;;;;4949338;29;20198;-78
2021/06/12 14:22:13;;;;;;;0.10;0.10;;;23.80;92.40;;;;;;4948057;29;20273;-76
2021/06/12 14:24:42;;;;;;;0.20;0.20;;;23.70;92.60;;;;;;4957737;29;20205;-78
2021/06/12 14:27:10;;;;;;;0.20;0.20;;;23.60;92.60;;;;;;4938806;29;20284;-80
2021/06/12 14:29:38;;;;;;;0.20;0.20;;;23.60;93.10;;;;;;4938422;29;20230;-79
2021/06/12 14:32:07;;;;;;;0.20;0.20;;;23.40;93.00;;;;;;4956324;29;20596;-78
2021/06/12 14:34:35;;;;;;;0.20;0.20;;;23.10;93.80;;;;;;4950674;29;20261;-78
2021/06/12 14:37:03;;;;;;;0.20;0.20;;;22.40;96.10;;;;;;4938141;29;20206;-78
2021/06/12 14:39:31;;;;;;;0.20;0.20;;;21.40;98.80;;;;;;4952781;29;20238;-79
2021/06/12 14:42:00;;;;;;;0.30;0.30;;;21.10;99.90;;;;;;4937744;29;20234;-77
2021/06/12 14:44:27;;;;;;;0.30;0.30;;;20.90;99.90;;;;;;4938000;29;20587;-78
2021/06/12 14:46:55;;;;;;;0.20;0.20;;;20.80;99.90;;;;;;4945144;29;20201;-78
2021/06/12 14:49:23;;;;;;;0.20;0.20;;;20.70;99.90;;;;;;4956459;29;20225;-78
2021/06/12 14:51:50;;;;;;;0.20;0.20;;;20.70;99.90;;;;;;4957755;29;20241;-77
2021/06/12 14:54:17;;;;;;;0.20;0.20;;;20.70;99.90;;;;;;4959308;29;20272;-78
2021/06/12 14:56:45;;;;;;;0.20;0.20;;;20.80;99.90;;;;;;4970476;29;20205;-78
2021/06/12 14:59:13;;;;;;;0.20;0.20;;;21.00;99.90;;;;;;4974707;29;20193;-78
2021/06/12 15:01:41;;;;;;;0.20;0.20;;;21.10;99.90;;;;;;4963186;29;20225;-79
2021/06/12 15:04:08;;;;;;;0.20;0.20;;;21.20;99.90;;;;;;4956575;29;20225;-78
2021/06/12 15:06:36;;;;;;;0.20;0.20;;;21.40;99.90;;;;;;4947358;29;20202;-79
2021/06/12 15:09:04;;;;;;;0.20;0.20;;;21.60;99.90;;;;;;4942101;29;20214;-77
2021/06/12 15:11:31;;;;;;;0.20;0.20;;;21.80;99.90;;;;;;4936031;29;20774;-78
2021/06/12 15:13:59;;;;;;;0.20;0.20;;;21.70;99.90;;;;;;4939030;29;20264;-78
2021/06/12 15:16:28;;;;;;;0.20;0.20;;;21.80;99.90;;;;;;4936470;29;20218;-78
2021/06/12 15:18:55;;;;;;;0.20;0.20;;;21.70;99.90;;;;;;4936971;29;20256;-77
2021/06/12 15:21:24;;;;;;;0.20;0.20;;;21.50;99.90;;;;;;4950941;29;20221;-78
2021/06/12 15:23:52;;;;;;;0.20;0.20;;;21.20;99.90;;;;;;4949534;29;20202;-78
2021/06/12 15:26:19;;;;;;;0.20;0.20;;;20.80;99.90;;;;;;4953625;29;20768;-78
2021/06/12 15:28:47;;;;;;;0.30;0.30;;;20.50;99.90;;;;;;4938853;29;20269;-78
2021/06/12 15:31:14;;;;;;;0.20;0.20;;;20.40;99.90;;;;;;4952670;29;20218;-78
2021/06/12 15:33:43;;;;;;;0.20;0.20;;;20.30;99.90;;;;;;4940299;29;20206;-78
2021/06/12 15:36:11;;;;;;;0.20;0.20;;;20.20;99.90;;;;;;4949569;29;20210;-77
2021/06/12 15:38:38;;;;;;;0.20;0.20;;;19.90;99.90;;;;;;4943730;29;20197;-77
2021/06/12 15:41:07;;;;;;;0.40;0.40;;;19.80;99.90;;;;;;4940462;29;20221;-75
2021/06/12 15:43:35;;;;;;;0.40;0.40;;;;;;;;;;4943740;29;20202;-77
2021/06/12 15:46:03;;;;;;;0.40;0.40;;;;;;;;;;4935727;29;20682;-77
2021/06/12 15:48:31;;;;;;;0.30;0.30;;;;;;;;;;4938893;29;20222;-78
2021/06/12 15:51:00;;;;;;;0.38;0.38;;;;;;;;;;4938782;29;20838;-78
2021/06/12 15:53:30;;;;;;;0.30;0.30;;;17.30;99.90;;;;;;4937838;29;20206;-77
2021/06/12 15:55:58;;;;;;;0.35;0.35;;;17.20;99.90;;;;;;4936192;29;20660;-76
2021/06/12 15:58:25;;;;;;;0.38;0.38;;;17.20;99.90;;;;;;4936972;29;20297;-77
2021/06/12 16:00:52;;;;;;;0.35;0.35;;;17.30;99.90;;;;;;4937123;29;20657;-76
2021/06/12 16:03:20;;;;;;;0.30;0.30;;;17.50;99.90;;;;;;4936254;29;20226;-76
2021/06/12 16:05:47;;;;;;;0.32;0.32;;;17.50;99.90;;;;;;4935131;29;20233;-76
2021/06/12 16:08:16;;;;;;;0.30;0.30;;;17.40;99.90;;;;;;4935821;29;20663;-76
2021/06/12 16:10:43;;;;;;;0.30;0.30;;;17.50;99.90;;;;;;4937112;29;20610;-78
2021/06/12 16:13:11;;;;;;;0.30;0.30;;;17.50;99.90;;;;;;4937842;29;20210;-77
2021/06/12 16:15:38;;;;;;;0.30;0.30;;;17.70;99.90;;;;;;4942858;29;20343;-77
2021/06/12 16:18:06;;;;;;;0.40;0.40;;;17.90;99.90;;;;;;4953502;29;20644;-78
2021/06/12 16:20:33;;;;;;;0.30;0.30;;;17.90;99.90;;;;;;4951483;28;20235;-77
2021/06/12 16:23:01;;;;;;;0.30;0.30;;;18.10;99.90;;;;;;4948205;29;20213;-77
2021/06/12 16:25:30;;;;;;;0.30;0.30;;;18.10;99.90;;;;;;4938667;29;20213;-76
2021/06/12 16:27:57;;;;;;;0.30;0.30;;;18.20;99.90;;;;;;4974617;23;20722;-79
2021/06/12 16:30:26;;;;;;;0.30;0.30;;;18.20;99.90;;;;;;4961479;29;20240;-77
2021/06/12 16:32:55;;;;;;;0.30;0.30;;;18.20;99.90;;;;;;4954415;29;20252;-77
2021/06/12 16:35:24;;;;;;;0.30;0.30;;;18.40;99.90;;;;;;4952996;29;20224;-79
2021/06/12 16:37:52;;;;;;;0.30;0.30;;;18.60;99.90;;;;;;4954655;29;20645;-79
2021/06/12 16:40:20;;;;;;;0.30;0.30;;;18.70;99.90;;;;;;4962557;29;20718;-77
2021/06/12 16:42:49;;;;;;;0.30;0.30;;;18.70;99.90;;;;;;4962704;28;20260;-78
2021/06/12 16:45:18;;;;;;;0.28;0.28;;;18.90;99.90;;;;;;4963050;29;20209;-80
2021/06/12 16:47:46;;;;;;;0.30;0.30;;;19.00;99.90;;;;;;4963192;29;20624;-78
2021/06/12 16:50:15;;;;;;;0.30;0.30;;;19.00;99.90;;;;;;4963083;29;20228;-78
2021/06/12 16:52:42;;;;;;;0.60;0.60;;;19.20;99.90;;;;;;4962429;29;20216;-77
2021/06/12 16:58:08;;;;;;;0.40;0.40;;;19.70;99.90;;;;;;4934915;29;20366;-79
2021/06/12 17:00:36;;;;;;;0.50;0.50;;;20.00;99.90;;;;;;4964131;29;20209;-79
2021/06/12 17:03:03;;;;;;;0.30;0.30;;;20.40;99.90;;;;;;4963160;29;20212;-78
2021/06/12 17:05:31;;;;;;;0.40;0.40;;;20.70;99.90;;;;;;4963479;29;20272;-78
2021/06/12 17:08:03;;;;;;;0.35;0.35;;;20.90;99.90;;;;;;4962963;29;20229;-79
2021/06/12 17:10:30;;;;;;;0.40;0.40;;;21.00;99.90;;;;;;4963533;29;20220;-78
2021/06/12 17:12:59;;;;;;;0.20;0.20;;;20.90;99.90;;;;;;4963498;29;20662;-78